Flight Track Log - Related Links

Times and Time Zones

All times are in EDT time to prevent confusion due to time zone crossing. See the UAL4202 flight status page for this flight to view local times or setup timezone preferences in your user account.

Time Position Orientation Groundspeed Altitude Reporting Facility
EDT Latitude Longitude Course Direction KTS MPH feet Rate Location/Type
Sat 11:00:33 AM 42.3667 -70.9667 90° East 170 196 800  Level KA90
Sat 11:01:33 AM 42.3667 -70.9000 90° East 175 201 3,000 1,726 Climbing KA90
Sat 11:02:59 AM 42.4033 -70.8094 61° Northeast 254 292 5,000 1,697 Climbing Boston Center
Sat 11:03:58 AM 42.4694 -70.7739 22° Northeast 243 280 7,100 2,319 Climbing Boston Center
Sat 11:04:58 AM 42.5306 -70.8256 328° Northwest 199 229 9,600 1,983 Climbing Boston Center
Sat 11:05:59 AM 42.5692 -70.9036 304° West 215 247 11,100 1,279 Climbing Boston Center
Sat 11:07:00 AM 42.6267 -71.0008 309° West 280 322 12,200 1,109 Climbing Boston Center
Sat 11:07:58 AM 42.6758 -71.0875 308° West 317 365 13,300 1,220 Climbing Boston Center
Sat 11:08:58 AM 42.7353 -71.1936 307° West 322 371 14,600 1,289 Climbing Boston Center
Sat 11:09:59 AM 42.7781 -71.2861 302° West 327 376 15,900 1,339 Climbing Boston Center
Sat 11:10:59 AM 42.7939 -71.4158 279° West 316 364 17,300 1,388 Climbing Boston Center
Sat 11:12:00 AM 42.8053 -71.5203 278° West 316 364 18,700 1,289 Climbing Boston Center
Sat 11:13:00 AM 42.8164 -71.6392 277° West 316 364 19,900 1,250 Climbing Boston Center
Sat 11:14:00 AM 42.8278 -71.7606 277° West 316 364 21,200 1,373 Climbing Boston Center
Sat 11:14:58 AM 42.8389 -71.8822 277° West 321 369 22,600 1,361 Climbing Boston Center
Sat 11:15:59 AM 42.8497 -72.0011 277° West 321 369 23,900 1,279 Climbing Boston Center
Sat 11:17:00 AM 42.8625 -72.1228 278° West 321 369 25,200 1,311 Climbing Boston Center
Sat 11:17:58 AM 42.8711 -72.2417 276° West 321 369 26,500 1,373 Climbing Boston Center
Sat 11:18:58 AM 42.8881 -72.3581 281° West 321 369 27,900 1,339 Climbing Boston Center
Sat 11:19:59 AM 42.9006 -72.4714 279° West 315 362 29,200 1,289 Climbing Boston Center
Sat 11:20:59 AM 42.9089 -72.5847 276° West 310 357 30,500 1,412 Climbing Boston Center
Sat 11:21:58 AM 42.9128 -72.7067 273° West 304 350 32,000 1,388 Climbing Boston Center
Sat 11:23:00 AM 42.9208 -72.8172 276° West 299 344 33,300 1,000 Climbing Boston Center
Sat 11:23:58 AM 42.9308 -72.9222 277° West 294 338 34,000 353 Climbing Boston Center
Sat 11:24:59 AM 42.9408 -73.0244 278° West 294 338 34,000  Level Boston Center
Sat 11:26:00 AM 42.9525 -73.1492 277° West 302 348 34,000  Level Boston Center
Sat 11:26:58 AM 42.9622 -73.2769 276° West 329 379 34,000  Level Boston Center
Sat 11:28:00 AM 42.9694 -73.4189 274° West 337 388 34,000  Level Boston Center
Sat 11:28:58 AM 42.9828 -73.5469 278° West 347 399 34,000 200 Level Boston Center
Sat 11:30:00 AM 42.9897 -73.6747 274° West 347 399 34,400 634 Climbing Boston Center
Sat 11:31:01 AM 43.0008 -73.8000 277° West 347 399 35,300 763 Climbing Boston Center
Sat 11:31:58 AM 43.0097 -73.9194 276° West 347 399 35,900 359 Climbing Boston Center
Sat 11:32:58 AM 43.0206 -74.0503 277° West 342 394 36,000 50 Climbing Boston Center
Sat 11:33:59 AM 43.0294 -74.1556 277° West 347 399 36,000  Level Boston Center
Sat 11:35:00 AM 43.0394 -74.3178 275° West 354 407 36,000  Level Boston Center
Sat 11:35:58 AM 43.0494 -74.4544 276° West 360 414 36,000  Level Boston Center
Sat 11:36:58 AM 43.0594 -74.5883 276° West 360 414 36,000  Level Boston Center
Sat 11:37:59 AM 43.0694 -74.7194 276° West 360 414 36,000  Level Boston Center
Sat 11:38:58 AM 43.0772 -74.8533 275° West 355 409 36,000  Level Boston Center
Sat 11:39:58 AM 43.0847 -74.9875 274° West 355 409 36,000  Level Boston Center
Sat 11:40:59 AM 43.0961 -75.1217 277° West 355 409 36,000  Level Boston Center
Sat 11:41:59 AM 43.1056 -75.2583 275° West 355 409 36,000  Level Boston Center
Sat 11:42:59 AM 43.1108 -75.3781 273° West 355 409 36,000 -45 Level Boston Center
Sat 11:44:12 AM 43.1231 -75.5381 276° West 355 409 35,900  Descending Boston Center
Sat 11:45:10 AM 43.1300 -75.6722 274° West 355 409 36,000  Climbing Boston Center
Sat 11:46:11 AM 43.1386 -75.8036 275° West 350 403 35,900  Descending Boston Center
Sat 11:47:12 AM 43.1472 -75.9350 275° West 350 403 36,000 50 Climbing Boston Center
Sat 11:48:12 AM 43.1556 -76.0692 275° West 350 403 36,000  Level Boston Center
Sat 11:49:47 AM 43.1389 -76.2808 264° West 347 399 36,000  Level Cleveland Center
Sat 11:50:47 AM 43.1014 -76.3972 246° West 341 392 36,000  Level Cleveland Center
Sat 11:51:47 AM 43.0661 -76.5161 248° West 341 392 36,000  Level Cleveland Center
Sat 11:52:47 AM 43.0286 -76.6381 247° West 346 398 36,000  Level Cleveland Center
Sat 11:53:47 AM 42.9908 -76.7539 246° West 346 398 36,000  Level Cleveland Center
Sat 11:54:47 AM 42.9553 -76.8753 248° West 341 392 36,000  Level Cleveland Center
Sat 11:55:47 AM 42.9172 -76.9939 246° West 341 392 36,000  Level Cleveland Center
Sat 11:56:47 AM 42.8792 -77.1150 247° West 341 392 36,000  Level Cleveland Center
Sat 11:57:47 AM 42.8431 -77.2331 247° West 341 392 36,000  Level Cleveland Center
Sat 11:58:47 AM 42.8069 -77.3511 247° West 341 392 36,000  Level Cleveland Center
Sat 11:59:47 AM 42.7686 -77.4719 247° West 341 392 36,000  Level Cleveland Center
Sat 12:00:47 PM 42.7300 -77.5897 246° West 341 392 36,000  Level Cleveland Center
Sat 12:01:47 PM 42.6953 -77.7044 248° West 341 392 36,000  Level Cleveland Center
Sat 12:02:47 PM 42.6547 -77.8333 247° West 341 392 36,000  Level Cleveland Center
Sat 12:03:47 PM 42.6156 -77.9481 245° Southwest 341 392 36,000 -50 Level Cleveland Center
Sat 12:04:47 PM 42.5786 -78.0622 246° West 336 387 35,900 -550 Descending Cleveland Center
Sat 12:05:47 PM 42.5417 -78.1822 247° West 341 392 34,900 -950 Descending Cleveland Center
Sat 12:06:47 PM 42.5042 -78.2964 246° West 341 392 34,000 -450 Descending Cleveland Center
Sat 12:07:47 PM 42.4669 -78.4103 246° West 336 387 34,000  Level Cleveland Center
Sat 12:08:47 PM 42.4292 -78.5211 245° Southwest 336 387 34,000  Level Cleveland Center
Sat 12:09:47 PM 42.3917 -78.6406 247° West 336 387 34,000  Level Cleveland Center
Sat 12:10:47 PM 42.3542 -78.7569 246° West 341 392 34,000  Level Cleveland Center
Sat 12:11:47 PM 42.3142 -78.8731 245° Southwest 341 392 34,000  Level Cleveland Center
Sat 12:12:47 PM 42.2719 -78.9894 244° Southwest 341 392 34,000  Level Cleveland Center
Sat 12:13:47 PM 42.2342 -79.1081 247° West 341 392 34,000 -50 Level Cleveland Center
Sat 12:14:47 PM 42.1978 -79.2156 245° Southwest 341 392 33,900 -550 Descending Cleveland Center
Sat 12:15:47 PM 42.1575 -79.3283 244° Southwest 341 392 32,900 -1,150 Descending Cleveland Center
Sat 12:16:47 PM 42.1211 -79.4411 247° West 336 387 31,600 -1,450 Descending Cleveland Center
Sat 12:17:47 PM 42.0867 -79.5453 246° West 323 372 30,000 -1,750 Descending Cleveland Center
Sat 12:18:47 PM 42.0500 -79.6519 245° Southwest 317 365 28,100 -1,850 Descending Cleveland Center
Sat 12:19:47 PM 42.0114 -79.7644 245° Southwest 325 374 26,300 -1,800 Descending Cleveland Center
Sat 12:20:47 PM 41.9703 -79.8822 245° Southwest 336 387 24,500 -1,600 Descending Cleveland Center
Sat 12:21:47 PM 41.9253 -80.0111 245° Southwest 343 395 23,100 -1,250 Descending Cleveland Center
Sat 12:22:47 PM 41.8839 -80.1231 244° Southwest 343 395 22,000 -550 Descending Cleveland Center
Sat 12:23:47 PM 41.8469 -80.2347 246° West 336 387 22,000 -600 Level Cleveland Center
Sat 12:24:47 PM 41.8075 -80.3464 245° Southwest 330 380 20,800 -1,600 Descending Cleveland Center
Sat 12:25:47 PM 41.7681 -80.4578 245° Southwest 330 380 18,800 -2,050 Descending Cleveland Center
Sat 12:26:47 PM 41.7306 -80.5636 245° Southwest 325 374 16,700 -1,900 Descending Cleveland Center
Sat 12:27:47 PM 41.6972 -80.6583 245° Southwest 320 368 15,000 -2,038 Descending Cleveland Center
Sat 12:28:33 PM 41.6658 -80.7528 246° West 308 354 13,100 -2,075 Descending Cleveland Center
Sat 12:29:34 PM 41.6239 -80.8581 242° Southwest 317 365 11,300 -1,388 Descending Cleveland Center
Sat 12:30:47 PM 41.5883 -80.9772 248° West 320 368 10,000 -614 Descending Cleveland Center
Sat 12:31:41 PM 41.5775 -81.0883 263° West 308 354 10,000  Level Cleveland Center
Sat 12:32:42 PM 41.5686 -81.2019 264° West 312 359 10,000 -198 Level Cleveland Center
Sat 12:33:42 PM 41.5597 -81.2908 262° West 213 245 9,600 -369 Descending Cleveland Center
Sat 12:33:47 PM 41.5597 -81.2908 262° West 275 316 9,600 -1,770 Level Cleveland Center
Sat 12:34:43 PM 41.5508 -81.3739 262° West 209 241 7,800 -1,676 Descending Cleveland Center
Sat 12:35:38 PM 41.5439 -81.4514 263° West 237 273 6,500 -1,240 Descending Cleveland Center
Sat 12:36:44 PM 41.5347 -81.5486 263° West 230 265 5,300 -1,039 Descending Cleveland Center
Sat 12:37:45 PM 41.5278 -81.6314 264° West 224 258 4,300 -783 Descending Cleveland Center
Sat 12:38:39 PM 41.5125 -81.7006 254° West 217 250 3,800 -793 Descending Cleveland Center
Sat 12:39:46 PM 41.4744 -81.7525 226° Southwest 150 173 2,700 -797 Descending Cleveland Center
Sat 12:40:47 PM 41.4533 -81.7883 232° Southwest 111 128 2,100 -658 Descending Cleveland Center
Sat 12:42:12 PM 41.4194 -81.8375 227° Southwest 130 150 1,100 -706 Descending Cleveland Center

Login

Don't have an account? Register now (free) for customized features, flight alerts, and more!